Time;durP1;ratioP1;P1;durP2;ratioP2;P2;SDS_P1;SDS_P2;PMS_P1;PMS_P2;Temp;Humidity;BMP_temperature;BMP_pressure;BME280_temperature;BME280_humidity;BME280_pressure;Samples;Min_cycle;Max_cycle;Signal;HPM_P1;HPM_P2
2023/07/17 00:01:04;;;;;;;4.68;4.28;;;;;;;21.77;100.00;99564.00;5073675;28;20025;-88
2023/07/17 00:03:29;;;;;;;7.18;4.47;;;;;;;21.93;100.00;99588.09;5072191;28;20021;-87
2023/07/17 00:05:57;;;;;;;4.47;4.07;;;;;;;21.98;100.00;99589.47;5072253;28;20091;-88
2023/07/17 00:08:22;;;;;;;5.18;4.68;;;;;;;21.92;100.00;99590.91;5073598;28;20082;-88
2023/07/17 00:10:48;;;;;;;4.82;4.40;;;;;;;22.02;100.00;99615.53;5072950;28;20419;-87
2023/07/17 00:13:13;;;;;;;5.28;4.32;;;;;;;22.05;100.00;99620.56;5073292;28;20095;-88
2023/07/17 00:15:39;;;;;;;5.32;4.43;;;;;;;21.91;100.00;99605.97;5073073;28;20024;-88
2023/07/17 00:18:04;;;;;;;4.70;4.30;;;;;;;21.89;100.00;99615.88;5071948;28;20024;-87
2023/07/17 00:20:29;;;;;;;4.70;4.30;;;;;;;21.78;100.00;99605.44;5071683;28;20028;-87
2023/07/17 00:22:55;;;;;;;6.10;4.43;;;;;;;21.83;100.00;99610.31;5073170;28;20100;-88
2023/07/17 00:25:20;;;;;;;4.63;4.20;;;;;;;21.76;100.00;99596.81;5073006;28;20028;-87
2023/07/17 00:27:45;;;;;;;4.95;4.28;;;;;;;21.90;100.00;99617.53;5072689;28;20033;-87
2023/07/17 00:30:12;;;;;;;5.43;4.93;;;;;;;21.88;100.00;99616.84;5072997;28;20028;-87
2023/07/17 00:32:37;;;;;;;3.90;3.60;;;;;;;21.91;100.00;99632.50;5072788;28;20028;-88
2023/07/17 00:35:03;;;;;;;4.57;4.18;;;;;;;21.90;100.00;99646.69;5072970;28;20028;-87
2023/07/17 00:37:28;;;;;;;4.20;3.80;;;;;;;21.86;100.00;99645.31;5071440;28;20029;-87
2023/07/17 00:39:54;;;;;;;5.65;5.03;;;;;;;21.75;100.00;99615.50;5072615;28;20044;-87
2023/07/17 00:42:19;;;;;;;4.93;4.50;;;;;;;21.70;100.00;99601.84;5071473;28;20028;-87
2023/07/17 00:44:45;;;;;;;4.82;4.43;;;;;;;21.87;100.00;99624.97;5072676;28;20039;-88
2023/07/17 00:47:10;;;;;;;7.13;4.30;;;;;;;21.87;100.00;99617.00;5072899;28;20027;-88
2023/07/17 00:49:36;;;;;;;4.47;4.05;;;;;;;21.83;100.00;99612.97;5071320;28;20028;-88
2023/07/17 00:52:01;;;;;;;4.60;4.20;;;;;;;21.93;100.00;99635.81;5072719;28;20027;-87
2023/07/17 00:54:28;;;;;;;4.68;4.20;;;;;;;21.75;100.00;99596.97;5070560;28;20029;-87
2023/07/17 00:56:57;;;;;;;4.63;3.83;;;;;;;21.70;100.00;99583.28;5070941;28;20388;-88
2023/07/17 00:59:22;;;;;;;4.47;4.07;;;;;;;21.91;100.00;99619.22;5072857;28;20082;-87
2023/07/17 01:01:48;;;;;;;4.20;3.90;;;;;;;21.82;100.00;99590.06;5072503;28;20028;-88
2023/07/17 01:04:14;;;;;;;4.75;4.35;;;;;;;21.82;100.00;99582.94;5072490;28;20029;-88
2023/07/17 01:06:40;;;;;;;4.70;4.30;;;;;;;21.79;100.00;99588.56;5072286;28;20028;-88
2023/07/17 01:09:07;;;;;;;4.90;4.40;;;;;;;21.70;100.00;99577.97;5072467;28;20032;-87
2023/07/17 01:11:33;;;;;;;8.85;3.83;;;;;;;21.73;100.00;99599.72;5072283;28;20111;-88
2023/07/17 01:13:58;;;;;;;4.60;4.20;;;;;;;21.61;100.00;99588.47;5072450;28;20483;-87
2023/07/17 01:16:24;;;;;;;4.50;4.10;;;;;;;21.57;100.00;99596.84;5072253;28;20021;-87
2023/07/17 01:18:49;;;;;;;4.50;4.10;;;;;;;21.71;100.00;99632.69;5072292;28;20036;-88
2023/07/17 01:21:17;;;;;;;5.07;4.57;;;;;;;21.61;100.00;99627.38;5072270;28;20069;-87
2023/07/17 01:23:44;;;;;;;4.65;3.97;;;;;;;21.52;100.00;99621.13;5071893;28;20107;-87
2023/07/17 01:26:14;;;;;;;5.70;4.40;;;;;;;21.68;100.00;99644.41;5071965;28;20534;-87
2023/07/17 01:28:39;;;;;;;4.85;4.45;;;;;;;21.75;100.00;99656.13;5070646;28;20028;-87
2023/07/17 01:31:05;;;;;;;4.65;4.25;;;;;;;21.49;100.00;99616.13;5072139;28;20024;-87
2023/07/17 01:33:31;;;;;;;4.57;4.18;;;;;;;21.80;100.00;99650.38;5072119;28;20028;-88
2023/07/17 01:35:56;;;;;;;4.75;4.28;;;;;;;21.77;100.00;99640.88;5072010;28;20357;-88
2023/07/17 01:38:21;;;;;;;4.95;4.28;;;;;;;21.67;100.00;99640.91;5072059;28;20082;-88
2023/07/17 01:40:46;;;;;;;4.60;4.20;;;;;;;21.43;100.00;99609.56;5070529;28;20098;-87
2023/07/17 01:43:12;;;;;;;4.30;3.90;;;;;;;21.41;100.00;99622.13;5072320;28;20020;-87
2023/07/17 01:45:37;;;;;;;4.50;4.10;;;;;;;21.47;100.00;99635.78;5071745;28;20024;-87
2023/07/17 01:48:02;;;;;;;4.32;3.92;;;;;;;21.64;100.00;99656.25;5071958;28;20050;-86
2023/07/17 01:50:28;;;;;;;4.80;4.20;;;;;;;21.56;100.00;99633.13;5071576;28;20028;-86
2023/07/17 01:52:53;;;;;;;4.50;4.10;;;;;;;21.51;100.00;99640.66;5071503;28;20028;-87
2023/07/17 01:55:18;;;;;;;4.70;4.30;;;;;;;21.47;100.00;99633.97;5070710;28;20422;-87
2023/07/17 01:57:44;;;;;;;4.07;3.78;;;;;;;21.39;100.00;99632.03;5071681;28;20519;-87
2023/07/17 02:00:12;;;;;;;4.85;4.40;;;;;;;21.38;100.00;99650.72;5070499;28;20427;-87
2023/07/17 02:02:37;;;;;;;5.28;4.75;;;;;;;21.44;100.00;99671.34;5071587;28;20024;-86
2023/07/17 02:05:03;;;;;;;4.65;4.25;;;;;;;21.41;100.00;99658.41;5071713;28;20029;-87
2023/07/17 02:07:29;;;;;;;4.82;4.35;;;;;;;21.39;100.00;99661.16;5074509;28;20064;-87
2023/07/17 02:09:54;;;;;;;4.93;4.20;;;;;;;21.34;100.00;99663.41;5075485;28;20538;-87
2023/07/17 02:12:19;;;;;;;4.50;4.10;;;;;;;21.31;100.00;99668.94;5075646;28;20025;-87
2023/07/17 02:14:44;;;;;;;4.03;3.63;;;;;;;21.30;100.00;99664.63;5075504;28;20532;-87
2023/07/17 02:17:10;;;;;;;4.55;3.85;;;;;;;21.29;100.00;99667.44;5075338;28;20455;-87
2023/07/17 02:19:35;;;;;;;4.60;4.18;;;;;;;21.09;100.00;99648.88;5075399;28;20464;-87
2023/07/17 02:22:01;;;;;;;4.70;4.30;;;;;;;21.21;100.00;99659.34;5075410;28;20096;-87
2023/07/17 02:24:26;;;;;;;4.40;4.00;;;;;;;21.32;100.00;99675.97;5075224;28;20468;-86
2023/07/17 02:26:53;;;;;;;4.32;4.00;;;;;;;21.32;100.00;99670.66;5075371;28;20102;-87
2023/07/17 02:29:18;;;;;;;4.32;3.95;;;;;;;21.22;100.00;99668.94;5075320;28;20020;-87
2023/07/17 02:31:44;;;;;;;4.07;3.78;;;;;;;21.26;100.00;99695.03;5073611;28;20032;-87
2023/07/17 02:34:09;;;;;;;4.60;4.20;;;;;;;21.19;100.00;99701.84;5075221;28;20032;-87
2023/07/17 02:36:37;;;;;;;5.25;4.72;;;;;;;21.18;100.00;99711.59;5075209;28;20029;-87
2023/07/17 02:39:04;;;;;;;5.13;4.63;;;;;;;21.23;100.00;99715.66;5074987;28;20028;-87
2023/07/17 02:41:29;;;;;;;6.47;4.80;;;;;;;21.22;100.00;99724.56;5075188;28;20099;-87
2023/07/17 02:43:54;;;;;;;4.93;4.45;;;;;;;20.95;100.00;99685.53;5074826;28;20107;-87
2023/07/17 02:46:20;;;;;;;4.40;4.00;;;;;;;21.28;100.00;99734.59;5074944;28;20119;-87
2023/07/17 02:48:46;;;;;;;5.90;5.30;;;;;;;21.13;100.00;99708.53;5073288;28;20035;-87
2023/07/17 02:51:11;;;;;;;5.18;4.68;;;;;;;21.14;100.00;99715.50;5073368;28;20036;-87
2023/07/17 02:53:37;;;;;;;5.32;4.82;;;;;;;21.03;100.00;99701.56;5074798;28;20469;-87
2023/07/17 02:56:02;;;;;;;5.47;5.00;;;;;;;20.93;100.00;99710.31;5074545;28;20029;-87
2023/07/17 02:58:28;;;;;;;5.68;4.85;;;;;;;20.93;100.00;99725.34;5074909;28;20020;-87
2023/07/17 03:00:53;;;;;;;6.53;5.18;;;;;;;20.92;100.00;99734.28;5074502;28;20030;-87
2023/07/17 03:03:19;;;;;;;6.30;5.00;;;;;;;20.86;100.00;99730.38;5074722;28;20109;-87
2023/07/17 03:05:44;;;;;;;6.70;5.28;;;;;;;20.81;100.00;99739.66;5074672;28;20024;-87
2023/07/17 03:08:10;;;;;;;5.78;4.90;;;;;;;20.74;100.00;99731.44;5074490;28;20111;-86
2023/07/17 03:10:35;;;;;;;5.15;4.75;;;;;;;20.85;100.00;99752.50;5074605;28;20446;-87
2023/07/17 03:13:00;;;;;;;5.47;4.97;;;;;;;20.89;100.00;99743.31;5073155;28;20028;-87
2023/07/17 03:15:26;;;;;;;5.88;5.25;;;;;;;20.77;100.00;99717.09;5074374;28;20109;-86
2023/07/17 03:17:51;;;;;;;6.75;5.32;;;;;;;20.92;100.00;99742.22;5072284;28;20139;-87
2023/07/17 03:20:18;;;;;;;6.07;5.53;;;;;;;20.72;100.00;99706.91;5074387;28;20035;-87
2023/07/17 03:22:43;;;;;;;6.00;5.40;;;;;;;20.83;100.00;99724.50;5072791;28;20450;-87
2023/07/17 03:25:09;;;;;;;5.70;5.15;;;;;;;20.71;100.00;99709.69;5074562;28;20074;-87
2023/07/17 03:27:35;;;;;;;7.30;5.22;;;;;;;20.64;100.00;99701.44;5073948;28;20036;-89
2023/07/17 03:30:01;;;;;;;5.65;5.05;;;;;;;20.64;100.00;99698.78;5073674;28;20035;-88
2023/07/17 03:32:26;;;;;;;5.35;4.82;;;;;;;20.77;100.00;99707.34;5074922;28;20369;-88
2023/07/17 03:34:51;;;;;;;5.28;4.55;;;;;;;20.80;100.00;99709.72;5074868;28;20024;-89
2023/07/17 03:37:17;;;;;;;5.97;4.88;;;;;;;20.73;100.00;99695.38;5074296;28;20025;-87
2023/07/17 03:39:42;;;;;;;6.00;4.78;;;;;;;20.60;100.00;99678.88;5073792;28;20040;-87
2023/07/17 03:42:10;;;;;;;5.35;4.68;;;;;;;20.71;100.00;99685.88;5072782;28;20024;-87
2023/07/17 03:44:39;;;;;;;5.15;4.63;;;;;;;20.77;100.00;99688.81;5073814;28;20500;-87
2023/07/17 03:47:05;;;;;;;5.38;4.53;;;;;;;20.62;100.00;99667.19;5073579;28;20024;-87
2023/07/17 03:49:31;;;;;;;6.03;4.80;;;;;;;20.71;100.00;99683.22;5073643;28;20036;-87
2023/07/17 03:51:58;;;;;;;4.60;4.20;;;;;;;20.71;100.00;99681.41;5073451;28;20029;-87
2023/07/17 03:54:23;;;;;;;6.28;4.90;;;;;;;20.67;100.00;99672.06;5073872;28;20124;-87
2023/07/17 03:56:49;;;;;;;6.07;5.47;;;;;;;20.67;100.00;99677.38;5073690;28;20106;-88
2023/07/17 03:59:14;;;;;;;8.25;7.20;;;;;;;20.74;100.00;99691.75;5072420;28;20495;-88
2023/07/17 04:01:40;;;;;;;6.63;5.18;;;;;;;20.70;100.00;99687.69;5073594;28;20035;-87
2023/07/17 04:04:06;;;;;;;6.97;5.20;;;;;;;20.69;100.00;99678.09;5073435;28;20032;-88
2023/07/17 04:06:31;;;;;;;7.05;4.68;;;;;;;20.73;100.00;99671.53;5073431;28;20031;-87
2023/07/17 04:08:56;;;;;;;7.60;4.55;;;;;;;20.70;100.00;99655.94;5073303;28;20032;-87
2023/07/17 04:11:22;;;;;;;5.63;4.75;;;;;;;20.80;100.00;99653.28;5072111;28;20494;-87
2023/07/17 04:13:48;;;;;;;6.07;4.70;;;;;;;20.76;100.00;99628.91;5073170;28;20502;-87
2023/07/17 04:16:13;;;;;;;4.88;4.35;;;;;;;21.20;100.00;99677.03;5073292;28;20089;-88
2023/07/17 04:18:39;;;;;;;4.70;4.30;;;;;;;21.53;100.00;99678.47;5073213;28;20095;-87
2023/07/17 04:21:04;;;;;;;6.70;5.13;;;;;;;21.92;98.74;99663.31;5071518;28;20120;-88
2023/07/17 04:23:29;;;;;;;5.72;4.15;;;;;;;22.79;95.35;99675.38;5073344;28;20095;-88
2023/07/17 04:25:55;;;;;;;4.82;4.05;;;;;;;23.93;89.86;99666.81;5073122;28;20116;-88
2023/07/17 04:28:20;;;;;;;7.45;4.95;;;;;;;25.06;84.51;99654.97;5072764;28;20100;-88
2023/07/17 04:30:45;;;;;;;5.75;4.68;;;;;;;25.93;80.64;99660.66;5070701;28;20119;-88
2023/07/17 04:33:11;;;;;;;5.65;4.43;;;;;;;26.16;77.84;99634.91;5071655;28;20036;-88
2023/07/17 04:35:37;;;;;;;5.78;4.78;;;;;;;26.12;76.74;99673.63;5072797;28;20040;-89
2023/07/17 04:38:03;;;;;;;5.32;4.57;;;;;;;25.87;76.84;99672.84;5072902;28;20056;-88
2023/07/17 04:40:31;;;;;;;7.07;4.72;;;;;;;25.66;76.26;99664.50;5071572;28;20447;-89
2023/07/17 04:43:00;;;;;;;5.18;4.68;;;;;;;25.49;76.15;99634.34;5072630;28;20036;-89
2023/07/17 04:45:26;;;;;;;5.32;4.38;;;;;;;25.94;75.43;99665.00;5072816;28;20040;-89
2023/07/17 04:47:51;;;;;;;5.18;4.38;;;;;;;26.63;74.18;99650.09;5071030;28;20458;-89
2023/07/17 04:50:17;;;;;;;6.03;4.55;;;;;;;27.71;70.13;99654.50;5071088;28;20021;-89
2023/07/17 04:52:42;;;;;;;6.00;4.60;;;;;;;28.71;67.98;99654.91;5071410;28;20110;-89
2023/07/17 04:55:08;;;;;;;6.22;3.97;;;;;;;29.22;65.56;99654.03;5071243;28;20043;-89
2023/07/17 04:57:33;;;;;;;5.55;4.28;;;;;;;29.22;64.62;99668.28;5071317;28;20527;-89
2023/07/17 04:59:58;;;;;;;7.30;4.50;;;;;;;28.82;65.33;99675.88;5071053;28;20025;-89
2023/07/17 05:02:24;;;;;;;7.18;4.80;;;;;;;28.40;65.84;99670.38;5072481;28;20105;-89
2023/07/17 05:04:49;;;;;;;4.25;3.80;;;;;;;28.18;66.92;99685.50;5071004;28;20062;-89
2023/07/17 05:07:14;;;;;;;5.38;4.00;;;;;;;28.06;66.03;99672.59;5071096;28;20059;-89
2023/07/17 05:09:40;;;;;;;5.65;4.53;;;;;;;28.42;66.49;99689.78;5071085;28;20027;-89
2023/07/17 05:12:07;;;;;;;4.53;4.13;;;;;;;29.19;63.92;99686.59;5070845;28;20032;-89
2023/07/17 05:14:32;;;;;;;7.20;4.90;;;;;;;30.26;60.72;99698.06;5070996;28;20073;-89
2023/07/17 05:16:57;;;;;;;4.70;4.28;;;;;;;31.08;58.81;99703.56;5072117;28;20115;-89
2023/07/17 05:19:23;;;;;;;4.90;3.95;;;;;;;31.14;58.26;99698.22;5070716;28;20032;-89
2023/07/17 05:21:48;;;;;;;4.65;4.18;;;;;;;30.62;58.64;99691.59;5070720;28;20480;-89
2023/07/17 05:24:14;;;;;;;5.13;4.57;;;;;;;30.15;60.17;99690.53;5070966;28;20025;-89
2023/07/17 05:26:39;;;;;;;8.10;4.80;;;;;;;29.89;61.06;99704.59;5070791;28;20052;-89
2023/07/17 05:29:05;;;;;;;4.70;3.92;;;;;;;29.56;60.39;99681.00;5070562;28;20039;-89
2023/07/17 05:31:30;;;;;;;6.90;4.30;;;;;;;29.97;61.26;99700.94;5069199;28;20484;-89
2023/07/17 05:33:56;;;;;;;6.97;4.60;;;;;;;30.57;61.04;99700.25;5069466;28;20472;-89
2023/07/17 05:36:22;;;;;;;5.47;4.88;;;;;;;31.22;59.95;99691.81;5069280;28;20044;-89
2023/07/17 05:38:47;;;;;;;4.90;4.50;;;;;;;31.23;59.19;99677.34;5069398;28;20031;-89
2023/07/17 05:41:13;;;;;;;5.57;4.20;;;;;;;31.15;58.95;99686.44;5051744;28;20062;-89
2023/07/17 05:43:38;;;;;;;5.47;4.88;;;;;;;30.90;59.22;99702.28;5069316;28;20115;-89
2023/07/17 05:46:04;;;;;;;5.60;4.78;;;;;;;30.58;59.57;99706.47;5069107;28;20075;-88
2023/07/17 05:48:29;;;;;;;5.53;4.47;;;;;;;30.28;60.64;99695.97;5069329;28;20488;-88
2023/07/17 05:50:56;;;;;;;4.78;4.32;;;;;;;30.17;60.57;99701.06;5069143;28;20037;-88
2023/07/17 05:53:21;;;;;;;4.25;3.85;;;;;;;30.10;61.15;99709.06;5069335;28;20108;-89
2023/07/17 05:55:47;;;;;;;4.30;3.90;;;;;;;30.05;62.08;99711.53;5069424;28;20183;-88
2023/07/17 05:58:12;;;;;;;5.38;4.13;;;;;;;30.08;62.63;99711.94;5069022;28;20032;-88
2023/07/17 06:00:38;;;;;;;6.38;4.75;;;;;;;30.06;63.25;99692.50;5069275;28;20032;-88
2023/07/17 06:03:03;;;;;;;4.60;4.10;;;;;;;30.13;62.53;99700.63;5069854;28;20028;-88
2023/07/17 06:05:28;;;;;;;5.35;4.88;;;;;;;30.12;62.31;99679.31;5070573;28;20048;-88
2023/07/17 06:07:54;;;;;;;6.03;4.55;;;;;;;30.17;60.98;99683.13;5070062;28;20075;-88
2023/07/17 06:10:19;;;;;;;8.00;4.43;;;;;;;30.21;60.08;99679.00;5070213;28;20020;-89
2023/07/17 06:12:45;;;;;;;5.32;4.50;;;;;;;30.22;59.75;99658.34;5070344;28;20028;-89
2023/07/17 06:15:13;;;;;;;7.82;4.75;;;;;;;30.42;58.89;99677.25;5070031;28;20039;-88
2023/07/17 06:17:38;;;;;;;9.10;4.47;;;;;;;30.50;59.57;99664.47;5070038;28;20031;-88
2023/07/17 06:20:06;;;;;;;4.72;4.13;;;;;;;30.49;60.58;99657.44;5070139;28;20029;-89
2023/07/17 06:22:31;;;;;;;4.72;4.15;;;;;;;30.73;60.17;99664.19;5071495;28;20070;-89
2023/07/17 06:24:57;;;;;;;4.90;4.40;;;;;;;31.00;58.95;99662.38;5070029;28;20115;-89
2023/07/17 06:27:22;;;;;;;4.68;4.18;;;;;;;31.04;57.60;99650.19;5070494;28;20047;-89
2023/07/17 06:29:47;;;;;;;6.13;5.03;;;;;;;30.90;57.87;99647.69;5070566;28;20190;-88
2023/07/17 06:32:13;;;;;;;6.38;4.65;;;;;;;30.99;58.69;99655.34;5070211;28;20033;-89
2023/07/17 06:34:41;;;;;;;6.60;5.15;;;;;;;31.32;57.76;99656.47;5070587;28;20365;-89
2023/07/17 06:37:07;;;;;;;5.53;4.13;;;;;;;31.57;57.56;99645.91;5070371;28;20055;-89
2023/07/17 06:39:33;;;;;;;5.13;4.22;;;;;;;32.00;56.87;99647.13;5070548;28;20052;-89
2023/07/17 06:41:58;;;;;;;7.53;4.50;;;;;;;32.62;55.19;99654.81;5070255;28;20422;-89
2023/07/17 06:44:24;;;;;;;14.55;5.03;;;;;;;33.41;53.82;99673.22;5071959;28;20443;-90
2023/07/17 06:46:50;;;;;;;5.97;4.35;;;;;;;34.54;52.52;99666.75;5071532;28;20031;-89
2023/07/17 06:49:15;;;;;;;4.47;4.07;;;;;;;34.96;50.31;99669.53;5070300;28;20662;-89
2023/07/17 06:51:41;;;;;;;4.20;3.80;;;;;;;34.78;50.36;99639.84;5070695;28;20017;-89
2023/07/17 06:54:06;;;;;;;5.25;4.75;;;;;;;34.69;51.15;99642.03;5071273;28;20383;-89
2023/07/17 06:56:31;;;;;;;4.88;4.10;;;;;;;35.04;50.34;99671.94;5073597;28;20021;-90
2023/07/17 06:58:57;;;;;;;4.40;3.97;;;;;;;35.68;50.48;99675.72;5073410;28;20033;-89
2023/07/17 07:01:22;;;;;;;4.50;3.90;;;;;;;35.38;49.49;99643.28;5074754;28;20059;-89
2023/07/17 07:03:48;;;;;;;5.80;3.90;;;;;;;35.31;48.40;99658.81;5073939;28;20029;-88
2023/07/17 07:06:13;;;;;;;5.05;4.07;;;;;;;34.61;48.35;99647.75;5092364;28;20507;-89
2023/07/17 07:08:40;;;;;;;5.10;3.55;;;;;;;34.50;50.01;99655.56;5092619;28;20036;-89
2023/07/17 07:11:06;;;;;;;6.63;4.25;;;;;;;35.08;49.77;99656.06;5075125;28;20035;-89
2023/07/17 07:13:31;;;;;;;6.80;4.45;;;;;;;35.80;48.53;99634.28;5092579;28;20032;-89
2023/07/17 07:15:57;;;;;;;5.68;3.95;;;;;;;37.05;49.05;99662.66;5108417;28;20069;-89
2023/07/17 07:18:22;;;;;;;5.75;4.50;;;;;;;37.94;45.73;99646.44;5094868;28;20091;-89
2023/07/17 07:20:52;;;;;;;6.18;4.15;;;;;;;38.16;44.46;99636.41;5095629;28;20122;-89
2023/07/17 07:23:18;;;;;;;6.05;4.18;;;;;;;38.20;44.38;99634.81;5095282;28;20088;-89
2023/07/17 07:25:43;;;;;;;4.65;4.20;;;;;;;38.56;44.43;99648.03;5094715;28;20422;-90
2023/07/17 07:28:11;;;;;;;4.50;4.10;;;;;;;38.42;44.83;99650.34;5095358;28;20535;-89
2023/07/17 07:30:36;;;;;;;6.18;4.65;;;;;;;38.90;44.15;99667.78;5093871;28;20028;-89
2023/07/17 07:33:02;;;;;;;5.45;4.53;;;;;;;38.53;44.90;99643.13;5093347;28;20081;-89
2023/07/17 07:35:28;;;;;;;5.78;4.15;;;;;;;38.41;44.52;99649.53;5093875;28;20023;-89
2023/07/17 07:37:54;;;;;;;4.85;4.35;;;;;;;39.20;44.26;99672.69;5096840;28;20055;-89
2023/07/17 07:40:22;;;;;;;4.65;3.92;;;;;;;40.60;42.81;99675.00;5093393;28;20427;-89
2023/07/17 07:42:47;;;;;;;4.63;4.22;;;;;;;41.85;41.42;99664.75;5089645;28;20406;-89
2023/07/17 07:45:14;;;;;;;5.85;4.65;;;;;;;42.94;40.16;99666.72;5093857;28;20110;-89
2023/07/17 07:47:40;;;;;;;4.43;4.00;;;;;;;43.29;39.04;99674.72;5093943;28;20430;-88
2023/07/17 07:50:06;;;;;;;4.63;4.13;;;;;;;43.71;39.06;99676.00;5092591;28;20024;-89
2023/07/17 07:52:31;;;;;;;4.22;3.92;;;;;;;42.88;38.49;99668.69;5092497;28;20042;-88
2023/07/17 07:54:57;;;;;;;5.70;3.80;;;;;;;42.09;39.88;99693.09;5092377;28;20111;-88
2023/07/17 07:57:23;;;;;;;4.70;3.75;;;;;;;41.44;40.95;99689.38;5092747;28;20036;-88
2023/07/17 07:59:49;;;;;;;7.00;4.40;;;;;;;40.71;42.07;99681.31;5071234;28;20046;-88
2023/07/17 08:02:17;;;;;;;8.07;4.30;;;;;;;40.05;41.86;99684.53;5050356;28;20037;-87
2023/07/17 08:04:45;;;;;;;4.97;4.30;;;;;;;39.69;41.86;99685.38;5050887;28;20554;-88
2023/07/17 08:07:10;;;;;;;5.32;3.97;;;;;;;39.10;41.16;99683.47;5050530;28;20048;-88
2023/07/17 08:09:37;;;;;;;4.10;3.80;;;;;;;38.97;41.39;99694.78;5051057;28;20029;-88
2023/07/17 08:12:04;;;;;;;5.28;4.75;;;;;;;38.31;41.56;99705.69;5050629;28;20075;-87
2023/07/17 08:14:29;;;;;;;4.43;3.88;;;;;;;37.31;44.02;99707.38;5050851;28;20086;-88
2023/07/17 08:16:55;;;;;;;4.80;4.40;;;;;;;36.25;44.70;99696.03;5050550;28;20583;-88
2023/07/17 08:19:21;;;;;;;5.57;3.95;;;;;;;35.56;45.29;99691.16;5050949;28;20397;-88
2023/07/17 08:21:46;;;;;;;4.85;4.07;;;;;;;35.39;46.30;99673.91;5033884;28;20033;-88
2023/07/17 08:24:12;;;;;;;4.90;4.40;;;;;;;35.54;46.40;99682.44;5033862;28;20060;-88
2023/07/17 08:26:40;;;;;;;4.97;3.97;;;;;;;35.24;46.01;99664.34;5033897;28;20500;-87
2023/07/17 08:29:06;;;;;;;4.28;3.63;;;;;;;34.90;47.13;99684.81;5050360;28;20028;-87
2023/07/17 08:31:32;;;;;;;5.20;4.70;;;;;;;34.63;47.96;99695.16;5066083;28;20040;-87
2023/07/17 08:33:59;;;;;;;6.32;4.32;;;;;;;34.20;47.46;99677.13;5090641;28;20049;-88
2023/07/17 08:36:26;;;;;;;5.80;4.43;;;;;;;33.88;47.67;99695.31;5091451;28;20140;-88
2023/07/17 08:38:53;;;;;;;5.03;4.22;;;;;;;33.60;48.81;99703.03;5090737;28;20028;-88
2023/07/17 08:41:19;;;;;;;5.60;4.80;;;;;;;33.03;51.64;99684.06;5073040;28;20083;-88
2023/07/17 08:43:44;;;;;;;6.82;4.40;;;;;;;32.77;53.31;99702.03;5073681;28;20060;-88
2023/07/17 08:46:12;;;;;;;5.95;4.15;;;;;;;32.36;54.13;99669.19;5090441;28;20024;-89
2023/07/17 08:48:40;;;;;;;5.47;4.38;;;;;;;32.33;54.58;99712.75;5074034;28;20032;-88
2023/07/17 08:51:07;;;;;;;6.05;5.00;;;;;;;32.26;54.57;99713.59;5090534;28;20019;-88
2023/07/17 08:53:35;;;;;;;4.53;4.13;;;;;;;32.38;54.65;99704.84;5092949;28;20024;-88
2023/07/17 08:56:00;;;;;;;4.68;4.13;;;;;;;32.45;54.89;99692.22;5092610;28;20395;-88
2023/07/17 08:58:27;;;;;;;6.60;4.13;;;;;;;32.51;54.76;99683.28;5092890;28;20025;-88
2023/07/17 09:00:53;;;;;;;5.07;3.80;;;;;;;32.71;54.39;99704.78;5092699;28;20028;-89
2023/07/17 09:03:18;;;;;;;7.70;4.35;;;;;;;32.61;53.78;99685.50;5091395;28;20476;-89
2023/07/17 09:05:44;;;;;;;4.65;4.03;;;;;;;32.64;53.01;99703.97;5091765;28;20073;-89
2023/07/17 09:08:12;;;;;;;5.18;4.00;;;;;;;32.47;52.93;99701.75;5091186;28;20070;-89
2023/07/17 09:10:39;;;;;;;8.88;4.32;;;;;;;32.30;53.95;99676.25;5091213;28;20039;-89
2023/07/17 09:13:04;;;;;;;5.80;4.60;;;;;;;32.35;54.32;99698.00;5090996;28;20114;-89
2023/07/17 09:15:32;;;;;;;5.35;4.40;;;;;;;32.43;53.31;99692.41;5090746;28;20115;-89
2023/07/17 09:17:58;;;;;;;5.15;4.57;;;;;;;32.49;52.50;99683.50;5092101;28;20024;-87
2023/07/17 09:20:24;;;;;;;5.00;4.35;;;;;;;32.61;52.20;99682.81;5090750;28;20024;-88
2023/07/17 09:22:55;;;;;;;5.95;4.13;;;;;;;32.65;51.74;99686.72;5092236;28;20031;-89
2023/07/17 09:25:25;;;;;;;6.53;4.07;;;;;;;32.73;50.78;99691.88;5093177;28;20114;-88
2023/07/17 09:27:51;;;;;;;5.03;4.35;;;;;;;32.74;50.76;99666.56;5091824;28;20506;-89
2023/07/17 09:30:19;;;;;;;6.50;4.65;;;;;;;32.80;50.49;99671.13;5110768;28;20063;-89
2023/07/17 09:32:45;;;;;;;5.75;4.07;;;;;;;32.87;50.64;99695.34;5093787;28;20039;-89
2023/07/17 09:35:12;;;;;;;5.68;4.38;;;;;;;32.86;51.95;99691.81;5126600;28;20052;-88
2023/07/17 09:37:39;;;;;;;6.75;4.28;;;;;;;32.79;51.98;99683.78;5132832;28;20047;-88
2023/07/17 09:40:11;;;;;;;4.63;4.18;;;;;;;32.47;52.60;99636.22;5114850;28;20043;-87
2023/07/17 09:42:43;;;;;;;6.25;4.13;;;;;;;32.66;51.71;99678.44;5132009;28;20103;-89
2023/07/17 09:45:11;;;;;;;6.18;4.28;;;;;;;32.37;50.89;99657.38;5095393;28;20040;-88
2023/07/17 09:47:37;;;;;;;6.13;4.35;;;;;;;32.29;53.91;99653.06;5094126;28;20044;-89
2023/07/17 09:50:03;;;;;;;5.30;3.85;;;;;;;32.45;54.23;99668.78;5073786;28;20043;-88
2023/07/17 09:52:29;;;;;;;6.35;4.40;;;;;;;32.44;52.67;99666.28;5073495;28;20028;-89
2023/07/17 09:54:57;;;;;;;5.15;4.13;;;;;;;32.45;52.51;99673.34;5073841;28;20039;-89
2023/07/17 09:57:35;;;;;;;5.45;4.50;;;;;;;32.37;53.29;99668.16;5089837;28;20109;-88
2023/07/17 10:00:10;;;;;;;5.90;4.28;;;;;;;32.24;53.48;99677.94;5090250;28;20036;-89
2023/07/17 10:02:39;;;;;;;9.20;4.30;;;;;;;32.05;52.51;99663.47;5057232;28;20055;-90
2023/07/17 10:05:06;;;;;;;5.03;3.83;;;;;;;32.04;53.52;99647.53;5072545;28;20097;-90
2023/07/17 10:07:35;;;;;;;4.38;3.50;;;;;;;32.16;54.19;99639.63;5089558;28;20028;-91
2023/07/17 10:10:01;;;;;;;5.13;3.90;;;;;;;32.36;53.35;99653.84;5072702;28;20118;-90
2023/07/17 10:12:27;;;;;;;5.90;3.90;;;;;;;32.23;53.88;99638.53;5072274;28;20036;-90
2023/07/17 10:14:54;;;;;;;6.00;4.05;;;;;;;32.28;52.84;99675.66;5072645;28;20111;-90
2023/07/17 10:17:35;;;;;;;8.95;4.20;;;;;;;32.24;53.19;99658.25;5089130;28;20052;-89
2023/07/17 10:20:11;;;;;;;;;;;;;;;32.44;52.90;99671.69;5092388;28;20089;-90
2023/07/17 10:22:44;;;;;;;4.82;4.00;;;;;;;32.49;53.10;99670.00;5091638;28;19912;-90
2023/07/17 10:25:09;;;;;;;6.13;4.10;;;;;;;32.45;52.58;99662.56;5090020;28;20032;-90
2023/07/17 10:27:45;;;;;;;4.43;4.03;;;;;;;32.38;53.23;99657.19;5092872;28;20028;-90
2023/07/17 10:30:36;;;;;;;4.68;3.90;;;;;;;32.42;53.50;99663.00;5094398;28;20032;-90
2023/07/17 10:33:01;;;;;;;6.90;4.95;;;;;;;32.48;53.93;99668.34;5077160;28;20077;-89
2023/07/17 10:35:52;;;;;;;4.55;4.15;;;;;;;32.63;52.19;99656.47;5093866;28;20119;-89
2023/07/17 10:38:23;;;;;;;4.85;3.60;;;;;;;32.61;51.59;99667.44;5095493;28;20028;-90
2023/07/17 10:41:01;;;;;;;4.28;3.80;;;;;;;32.72;51.65;99664.09;5093763;28;20047;-90
2023/07/17 10:43:26;;;;;;;5.38;4.40;;;;;;;32.66;50.45;99656.88;5093749;28;20036;-90
2023/07/17 10:45:52;;;;;;;5.63;4.10;;;;;;;32.68;50.52;99660.16;5094879;28;20034;-94
2023/07/17 10:48:18;;;;;;;5.00;3.90;;;;;;;32.68;50.12;99664.75;5075727;28;20105;-94
2023/07/17 10:50:50;;;;;;;5.10;3.92;;;;;;;32.60;49.54;99659.59;5076751;28;20228;-93
2023/07/17 10:53:33;;;;;;;5.65;4.32;;;;;;;32.63;49.73;99659.16;5052998;28;20175;-91
2023/07/17 10:55:58;;;;;;;5.88;4.15;;;;;;;32.71;48.43;99658.91;5052802;28;20127;-89
2023/07/17 10:58:24;;;;;;;4.72;3.70;;;;;;;32.71;48.68;99657.06;5035652;28;20447;-90
2023/07/17 11:00:50;;;;;;;6.63;4.20;;;;;;;32.63;48.04;99668.09;5035685;28;20068;-89
2023/07/17 11:03:16;;;;;;;6.20;4.30;;;;;;;32.47;48.31;99655.91;5052082;28;20036;-89
2023/07/17 11:05:44;;;;;;;5.28;3.50;;;;;;;32.42;48.84;99663.00;5052694;28;20044;-90
2023/07/17 11:08:12;;;;;;;5.97;4.15;;;;;;;32.41;49.27;99648.69;5035574;28;20041;-87
2023/07/17 11:10:41;;;;;;;4.68;4.10;;;;;;;32.42;48.11;99661.13;5035684;28;20029;-89
2023/07/17 11:13:07;;;;;;;7.60;4.68;;;;;;;32.36;48.00;99653.00;5052059;28;20043;-90
2023/07/17 11:15:34;;;;;;;5.63;4.25;;;;;;;32.19;47.84;99648.09;5035169;28;20172;-90
2023/07/17 11:18:04;;;;;;;5.18;3.90;;;;;;;32.16;48.94;99645.00;5035333;28;20029;-89
2023/07/17 11:20:32;;;;;;;7.32;4.18;;;;;;;32.13;48.78;99631.97;5054812;28;20479;-90
2023/07/17 11:22:58;;;;;;;7.07;4.32;;;;;;;32.15;49.01;99635.25;5055313;28;20024;-89
2023/07/17 11:25:32;;;;;;;6.45;4.60;;;;;;;32.05;48.47;99628.44;5086870;28;20036;-89
2023/07/17 11:27:59;;;;;;;5.35;4.10;;;;;;;32.00;49.02;99628.25;5093212;28;20024;-90